createdAt,value
2023-01-09T00:01:38.287Z,0.52
2023-01-09T00:04:07.879Z,0.32
2023-01-09T00:06:36.360Z,1.05
2023-01-09T00:09:05.870Z,0.75
2023-01-09T00:11:34.331Z,1.10
2023-01-09T00:14:02.695Z,0.38
2023-01-09T00:16:31.221Z,0.50
2023-01-09T00:19:00.955Z,0.63
2023-01-09T00:21:29.382Z,0.50
2023-01-09T00:23:57.834Z,0.32
2023-01-09T00:26:27.331Z,0.38
2023-01-09T00:28:55.693Z,0.63
2023-01-09T00:31:24.182Z,0.88
2023-01-09T00:33:56.664Z,0.65
2023-01-09T00:36:25.103Z,0.30
2023-01-09T00:38:53.554Z,0.32
2023-01-09T00:41:28.710Z,0.45
2023-01-09T00:44:02.305Z,0.40
2023-01-09T00:46:38.022Z,0.60
2023-01-09T00:49:09.155Z,0.45
2023-01-09T00:51:37.672Z,0.47
2023-01-09T00:54:06.194Z,0.85
2023-01-09T00:56:37.261Z,0.77
2023-01-09T00:59:06.011Z,0.43
2023-01-09T01:01:34.523Z,0.30
2023-01-09T01:04:23.466Z,0.50
2023-01-09T01:07:09.667Z,0.43
2023-01-09T01:09:38.078Z,0.40
2023-01-09T01:12:07.786Z,0.82
2023-01-09T01:14:36.400Z,0.65
2023-01-09T01:17:04.787Z,0.35
2023-01-09T01:19:33.161Z,0.50
2023-01-09T01:22:01.559Z,1.20
2023-01-09T01:24:29.929Z,0.52
2023-01-09T01:26:58.325Z,0.30
2023-01-09T01:29:27.789Z,0.43
2023-01-09T01:31:56.196Z,0.63
2023-01-09T01:34:24.601Z,0.65
2023-01-09T01:36:52.985Z,0.30
2023-01-09T01:39:21.422Z,0.95
2023-01-09T01:41:49.901Z,0.20
2023-01-09T01:44:51.046Z,0.55
2023-01-09T01:47:22.037Z,0.85
2023-01-09T01:49:50.470Z,0.30
2023-01-09T01:52:19.442Z,1.02
2023-01-09T01:54:48.577Z,0.50
2023-01-09T01:57:17.257Z,0.77
2023-01-09T01:59:50.348Z,0.60
2023-01-09T02:02:23.179Z,0.40
2023-01-09T02:04:53.500Z,0.25
2023-01-09T02:07:22.003Z,0.95
2023-01-09T02:09:50.457Z,1.00
2023-01-09T02:12:20.172Z,0.30
2023-01-09T02:14:49.780Z,0.20
2023-01-09T02:17:32.348Z,0.20
2023-01-09T02:20:30.075Z,0.50
2023-01-09T02:23:10.838Z,0.52
2023-01-09T02:25:57.337Z,0.28
2023-01-09T02:28:48.785Z,0.28
2023-01-09T02:31:24.522Z,0.43
2023-01-09T02:33:58.086Z,1.38
2023-01-09T02:36:32.644Z,0.93
2023-01-09T02:39:05.478Z,0.10
2023-01-09T02:41:39.526Z,0.30
2023-01-09T02:44:24.151Z,0.10
2023-01-09T02:47:04.677Z,0.30
2023-01-09T02:49:35.285Z,0.50
2023-01-09T02:52:17.832Z,0.20
2023-01-09T02:54:55.577Z,0.30
2023-01-09T02:57:40.565Z,0.22
2023-01-09T03:00:19.091Z,0.73
2023-01-09T03:02:54.872Z,0.28
2023-01-09T03:05:28.690Z,0.88
2023-01-09T03:08:02.650Z,0.20
2023-01-09T03:10:37.430Z,0.32
2023-01-09T03:13:09.869Z,0.22
2023-01-09T03:15:41.526Z,0.28
2023-01-09T03:18:13.020Z,0.20
2023-01-09T03:20:41.566Z,0.13
2023-01-09T03:23:10.347Z,0.22
2023-01-09T03:25:38.705Z,0.30
2023-01-09T03:28:09.061Z,0.00
2023-01-09T03:30:38.256Z,0.13
2023-01-09T03:33:06.677Z,0.20
2023-01-09T03:35:36.132Z,0.10
2023-01-09T03:38:06.551Z,0.10
2023-01-09T03:40:35.639Z,0.47
2023-01-09T03:43:04.148Z,0.20
2023-01-09T03:45:32.582Z,0.20
2023-01-09T03:48:01.044Z,0.13
2023-01-09T03:50:29.426Z,0.30
2023-01-09T03:52:58.947Z,0.80
2023-01-09T03:55:27.320Z,0.20
2023-01-09T03:57:55.715Z,0.57
2023-01-09T04:00:24.284Z,0.22
2023-01-09T04:02:52.817Z,0.10
2023-01-09T04:05:21.204Z,0.25
2023-01-09T04:07:49.579Z,0.75
2023-01-09T04:10:19.360Z,0.20
2023-01-09T04:12:47.839Z,0.10
2023-01-09T04:15:16.276Z,0.43
2023-01-09T04:17:44.720Z,0.52
2023-01-09T04:20:13.354Z,2.10
2023-01-09T04:22:41.757Z,0.50
2023-01-09T04:25:10.444Z,0.13
2023-01-09T04:27:39.966Z,0.10
2023-01-09T04:30:09.559Z,0.70
2023-01-09T04:32:37.941Z,0.43
2023-01-09T04:35:06.981Z,0.50
2023-01-09T04:37:36.930Z,1.35
2023-01-09T04:42:35.242Z,0.85
2023-01-09T04:45:05.075Z,1.02
2023-01-09T04:47:33.662Z,1.35
2023-01-09T04:50:02.032Z,1.20
2023-01-09T04:52:30.607Z,1.08
2023-01-09T04:54:59.000Z,0.60
2023-01-09T04:57:28.264Z,0.52
2023-01-09T04:59:56.704Z,1.48
2023-01-09T05:02:26.179Z,0.77
2023-01-09T05:04:54.529Z,0.52
2023-01-09T05:07:22.902Z,1.52
2023-01-09T05:09:51.265Z,0.50
2023-01-09T05:12:19.680Z,0.68
2023-01-09T05:14:48.031Z,0.73
2023-01-09T05:17:16.687Z,0.57
2023-01-09T05:19:46.522Z,0.40
2023-01-09T05:22:15.108Z,0.50
2023-01-09T05:24:43.491Z,0.60
2023-01-09T05:27:11.840Z,0.57
2023-01-09T05:29:40.265Z,0.98
2023-01-09T05:32:08.639Z,0.98
2023-01-09T05:34:37.018Z,0.88
2023-01-09T05:37:06.474Z,0.30
2023-01-09T05:39:34.592Z,1.00
2023-01-09T05:42:02.948Z,1.38
2023-01-09T05:44:31.329Z,0.63
2023-01-09T05:47:01.921Z,0.40
2023-01-09T05:49:32.017Z,0.75
2023-01-09T05:52:00.480Z,0.40
2023-01-09T05:54:29.972Z,0.77
2023-01-09T05:56:58.397Z,2.47
2023-01-09T05:59:26.813Z,0.68
2023-01-09T06:01:55.291Z,0.60
2023-01-09T06:04:23.738Z,0.85
2023-01-09T06:06:52.097Z,1.20
2023-01-09T06:09:20.444Z,1.23
2023-01-09T06:11:51.266Z,2.38
2023-01-09T06:14:19.672Z,0.80
2023-01-09T06:16:48.060Z,0.88
2023-01-09T06:19:16.519Z,1.50
2023-01-09T06:21:44.940Z,1.25
2023-01-09T06:24:13.366Z,0.43
2023-01-09T06:26:41.755Z,0.63
2023-01-09T06:29:11.262Z,0.60
2023-01-09T06:31:39.339Z,0.30
2023-01-09T06:34:08.659Z,0.88
2023-01-09T06:36:37.040Z,1.10
2023-01-09T06:39:05.422Z,0.30
2023-01-09T06:41:33.820Z,0.57
2023-01-09T06:44:02.175Z,1.00
2023-01-09T06:46:31.662Z,0.63
2023-01-09T06:49:00.090Z,0.98
2023-01-09T06:51:33.447Z,0.20
2023-01-09T06:54:02.166Z,1.08
2023-01-09T06:56:30.628Z,0.28
2023-01-09T06:58:59.012Z,0.55
2023-01-09T07:01:27.503Z,0.60
2023-01-09T07:03:57.081Z,0.75
2023-01-09T07:06:25.273Z,0.63
2023-01-09T07:08:53.637Z,0.40
2023-01-09T07:11:22.032Z,0.73
2023-01-09T07:13:50.989Z,0.80
2023-01-09T07:16:19.450Z,0.20
2023-01-09T07:18:47.836Z,1.20
2023-01-09T07:21:17.353Z,0.40
2023-01-09T07:23:45.720Z,1.85
2023-01-09T07:26:14.108Z,3.75
2023-01-09T07:28:42.468Z,4.22
2023-01-09T07:31:10.870Z,3.00
2023-01-09T07:33:40.379Z,4.57
2023-01-09T07:36:09.355Z,4.28
2023-01-09T07:38:39.660Z,3.88
2023-01-09T07:41:08.092Z,4.78
2023-01-09T07:43:36.459Z,5.45
2023-01-09T07:46:04.946Z,3.65
2023-01-09T07:48:33.630Z,3.55
2023-01-09T07:51:02.060Z,2.30
2023-01-09T07:53:30.458Z,4.63
2023-01-09T07:55:59.932Z,3.28
2023-01-09T07:58:28.288Z,3.15
2023-01-09T08:00:56.743Z,2.58
2023-01-09T08:03:26.848Z,2.08
2023-01-09T08:05:55.358Z,4.05
2023-01-09T08:08:23.833Z,3.60
2023-01-09T08:10:52.260Z,2.20
2023-01-09T08:13:22.152Z,1.80
2023-01-09T08:15:50.560Z,2.10
2023-01-09T08:18:18.965Z,1.92
2023-01-09T08:20:49.651Z,1.90
2023-01-09T08:23:18.073Z,3.22
2023-01-09T08:25:46.463Z,2.03
2023-01-09T08:28:14.892Z,3.40
2023-01-09T08:30:44.440Z,3.40
2023-01-09T08:33:12.614Z,2.03
2023-01-09T08:35:41.124Z,2.40
2023-01-09T08:38:09.510Z,2.97
2023-01-09T08:40:37.663Z,1.55
2023-01-09T08:43:23.303Z,2.47
2023-01-09T08:46:10.097Z,1.58
2023-01-09T08:48:38.545Z,3.22
2023-01-09T08:51:07.041Z,2.08
2023-01-09T08:53:35.115Z,3.15
2023-01-09T08:56:04.038Z,2.95
2023-01-09T08:58:32.418Z,2.60
2023-01-09T09:01:05.797Z,3.47
2023-01-09T09:03:33.852Z,2.45
2023-01-09T09:06:01.955Z,3.55
2023-01-09T09:08:30.122Z,2.90
2023-01-09T09:11:01.186Z,2.50
2023-01-09T09:13:29.450Z,2.08
2023-01-09T09:15:57.939Z,1.58
2023-01-09T09:18:27.566Z,1.25
2023-01-09T09:20:55.658Z,2.55
2023-01-09T09:23:23.813Z,2.40
2023-01-09T09:25:51.918Z,6.20
2023-01-09T09:28:20.000Z,2.10
2023-01-09T09:30:48.384Z,2.47
2023-01-09T09:33:16.744Z,3.72
2023-01-09T09:35:46.646Z,2.15
2023-01-09T09:41:39.075Z,1.38
2023-01-09T09:44:39.606Z,2.00
2023-01-09T09:47:20.869Z,2.42
2023-01-09T09:49:58.718Z,3.30
2023-01-09T09:52:35.954Z,4.28
2023-01-09T09:55:13.901Z,1.85
2023-01-09T09:57:42.288Z,1.52
2023-01-09T10:00:19.230Z,1.65
2023-01-09T10:02:52.517Z,1.38
2023-01-09T10:05:26.841Z,3.47
2023-01-09T10:08:03.506Z,3.42
2023-01-09T10:10:45.365Z,2.58
2023-01-09T10:13:37.112Z,1.90
2023-01-09T10:16:21.654Z,4.05
2023-01-09T10:19:07.005Z,1.55
2023-01-09T10:21:47.089Z,1.77
2023-01-09T10:24:36.437Z,2.10
2023-01-09T10:27:16.347Z,2.40
2023-01-09T10:32:31.851Z,2.50
2023-01-09T10:35:14.213Z,2.63
2023-01-09T10:37:46.661Z,1.75
2023-01-09T10:40:23.854Z,1.70
2023-01-09T10:42:55.645Z,2.22
2023-01-09T10:45:27.738Z,1.35
2023-01-09T10:48:02.961Z,1.35
2023-01-09T10:50:35.156Z,1.10
2023-01-09T10:53:11.288Z,1.63
2023-01-09T10:55:44.172Z,2.25
2023-01-09T10:58:13.990Z,1.38
2023-01-09T11:00:42.591Z,1.15
2023-01-09T11:03:13.955Z,1.70
2023-01-09T11:05:42.500Z,1.48
2023-01-09T11:08:24.151Z,1.92
2023-01-09T11:10:55.406Z,1.75
2023-01-09T11:13:25.241Z,1.20
2023-01-09T11:16:08.187Z,1.35
2023-01-09T11:18:39.562Z,1.20
2023-01-09T11:21:35.673Z,1.02
2023-01-09T11:24:29.640Z,0.60
2023-01-09T11:27:27.326Z,1.35
2023-01-09T11:30:21.177Z,0.75
2023-01-09T11:32:49.903Z,0.73
2023-01-09T11:35:33.746Z,2.15
2023-01-09T11:38:06.154Z,1.35
2023-01-09T11:40:46.256Z,0.98
2023-01-09T11:43:20.747Z,0.82
2023-01-09T11:46:00.592Z,1.15
2023-01-09T11:48:54.153Z,0.73
2023-01-09T11:51:24.934Z,0.95
2023-01-09T11:54:23.677Z,1.13
2023-01-09T11:56:52.437Z,1.30
2023-01-09T11:59:24.172Z,1.13
2023-01-09T12:02:20.387Z,1.50
2023-01-09T12:04:54.615Z,0.90
2023-01-09T12:08:07.461Z,0.88
2023-01-09T12:10:48.920Z,0.52
2023-01-09T12:13:32.643Z,1.25
2023-01-09T12:16:11.861Z,0.85
2023-01-09T12:18:55.722Z,0.77
2023-01-09T12:21:36.058Z,1.60
2023-01-09T12:24:25.465Z,1.63
2023-01-09T12:27:06.422Z,1.27
2023-01-09T12:30:01.918Z,0.68
2023-01-09T12:32:46.121Z,1.27
2023-01-09T12:35:25.179Z,0.70
2023-01-09T12:38:23.995Z,0.70
2023-01-09T12:41:22.884Z,0.40
2023-01-09T12:44:04.372Z,1.98
2023-01-09T12:46:38.771Z,1.92
2023-01-09T12:49:27.706Z,1.55
2023-01-09T12:52:05.148Z,1.58
2023-01-09T12:54:38.865Z,1.42
2023-01-09T12:57:15.200Z,1.17
2023-01-09T12:59:48.257Z,2.80
2023-01-09T13:02:27.675Z,2.15
2023-01-09T13:05:01.710Z,1.20
2023-01-09T13:07:33.596Z,1.60
2023-01-09T13:10:07.695Z,0.80
2023-01-09T13:12:40.682Z,1.00
2023-01-09T13:15:23.456Z,1.15
2023-01-09T13:17:55.095Z,1.27
2023-01-09T13:20:30.361Z,1.27
2023-01-09T13:22:58.916Z,0.70
2023-01-09T13:25:41.151Z,1.15
2023-01-09T13:28:17.053Z,1.30
2023-01-09T13:31:03.402Z,1.00
2023-01-09T13:33:33.767Z,1.90
2023-01-09T13:36:04.030Z,1.85
2023-01-09T13:38:33.095Z,1.75
2023-01-09T13:41:29.538Z,0.97
2023-01-09T13:43:59.682Z,1.60
2023-01-09T13:46:38.078Z,1.40
2023-01-09T13:49:06.532Z,1.70
2023-01-09T13:52:01.086Z,1.50
2023-01-09T13:55:03.338Z,2.65
2023-01-09T13:57:34.896Z,1.38
2023-01-09T14:00:41.498Z,1.30
2023-01-09T14:03:20.426Z,1.08
2023-01-09T14:06:17.521Z,1.63
2023-01-09T14:09:05.205Z,1.98
2023-01-09T14:11:33.788Z,0.63
2023-01-09T14:14:09.182Z,0.70
2023-01-09T14:16:38.933Z,1.77
2023-01-09T14:19:24.049Z,1.20
2023-01-09T14:21:55.340Z,1.10
2023-01-09T14:24:30.666Z,1.00
2023-01-09T14:27:00.280Z,1.52
2023-01-09T14:29:47.388Z,1.77
2023-01-09T14:32:44.468Z,1.42
2023-01-09T14:35:23.740Z,1.27
2023-01-09T14:38:14.749Z,0.90
2023-01-09T14:40:49.708Z,0.77
2023-01-09T14:43:25.900Z,0.95
2023-01-09T14:45:57.858Z,1.48
2023-01-09T14:48:27.619Z,0.60
2023-01-09T14:50:59.910Z,0.70
2023-01-09T14:53:32.668Z,1.40
2023-01-09T14:56:06.659Z,1.08
2023-01-09T14:58:35.692Z,1.00
2023-01-09T15:01:06.136Z,0.77
2023-01-09T15:03:39.325Z,1.77
2023-01-09T15:06:11.493Z,3.55
2023-01-09T15:08:39.935Z,2.78
2023-01-09T15:11:13.277Z,3.60
2023-01-09T15:13:44.469Z,3.88
2023-01-09T15:16:18.414Z,3.25
2023-01-09T15:18:50.425Z,3.58
2023-01-09T15:21:21.636Z,2.58
2023-01-09T15:23:50.225Z,2.35
2023-01-09T15:26:27.687Z,2.08
2023-01-09T15:29:02.615Z,1.77
2023-01-09T15:31:31.283Z,1.83
2023-01-09T15:33:59.694Z,1.13
2023-01-09T15:36:31.036Z,3.58
2023-01-09T15:39:00.636Z,1.80
2023-01-09T15:41:48.831Z,3.63
2023-01-09T15:44:20.425Z,2.88
2023-01-09T15:46:50.233Z,2.85
2023-01-09T15:49:19.349Z,2.55
2023-01-09T15:51:49.492Z,2.20
2023-01-09T15:54:20.943Z,2.63
2023-01-09T15:56:50.424Z,5.75
2023-01-09T15:59:29.109Z,2.85
2023-01-09T16:02:20.813Z,3.47
2023-01-09T16:04:49.516Z,3.03
2023-01-09T16:07:21.001Z,4.72
2023-01-09T16:09:52.740Z,2.70
2023-01-09T16:12:24.547Z,3.97
2023-01-09T16:14:55.342Z,2.50
2023-01-09T16:17:26.631Z,2.47
2023-01-09T16:19:57.957Z,3.13
2023-01-09T16:22:28.416Z,3.03
2023-01-09T16:24:59.147Z,3.33
2023-01-09T16:27:30.897Z,3.75
2023-01-09T16:29:59.985Z,2.53
2023-01-09T16:32:30.767Z,3.87
2023-01-09T16:35:04.441Z,2.40
2023-01-09T16:37:34.176Z,1.80
2023-01-09T16:40:36.262Z,3.50
2023-01-09T16:43:05.333Z,1.98
2023-01-09T16:45:36.168Z,2.90
2023-01-09T16:48:12.030Z,3.63
2023-01-09T16:50:40.874Z,3.80
2023-01-09T16:53:15.617Z,6.03
2023-01-09T16:55:44.025Z,5.85
2023-01-09T16:58:18.515Z,6.13
2023-01-09T17:00:48.009Z,5.75
2023-01-09T17:03:17.754Z,7.10
2023-01-09T17:05:46.216Z,7.20
2023-01-09T17:08:22.266Z,5.63
2023-01-09T17:10:50.679Z,6.90
2023-01-09T17:13:20.755Z,5.90
2023-01-09T17:15:49.295Z,8.30
2023-01-09T17:18:19.670Z,6.90
2023-01-09T17:20:50.740Z,6.20
2023-01-09T17:23:20.850Z,6.30
2023-01-09T17:26:07.224Z,7.72
2023-01-09T17:28:37.164Z,4.38
2023-01-09T17:33:35.742Z,4.75
2023-01-09T17:36:04.327Z,3.53
2023-01-09T17:38:32.670Z,4.38
2023-01-09T17:41:01.016Z,4.20
2023-01-09T17:43:29.588Z,7.47
2023-01-09T17:46:00.212Z,9.48
2023-01-09T17:48:28.714Z,6.63
2023-01-09T17:50:57.069Z,7.55
2023-01-09T17:53:25.595Z,7.68
2023-01-09T17:55:54.300Z,7.95
2023-01-09T17:58:27.430Z,6.45
2023-01-09T18:00:56.338Z,7.68
2023-01-09T18:03:33.638Z,8.98
2023-01-09T18:06:02.555Z,7.20
2023-01-09T18:08:30.961Z,6.45
2023-01-09T18:10:59.878Z,5.63
2023-01-09T18:13:29.129Z,5.63
2023-01-09T18:15:57.915Z,6.07
2023-01-09T18:18:28.465Z,5.30
2023-01-09T18:20:57.392Z,6.57
2023-01-09T18:23:26.786Z,5.00
2023-01-09T18:25:57.897Z,5.47
2023-01-09T18:28:26.300Z,4.85
2023-01-09T18:30:54.677Z,4.00
2023-01-09T18:33:23.448Z,4.85
2023-01-09T18:35:52.881Z,5.25
2023-01-09T18:38:21.664Z,4.32
2023-01-09T18:40:50.036Z,5.05
2023-01-09T18:43:20.365Z,3.50
2023-01-09T18:45:48.819Z,4.57
2023-01-09T18:48:17.208Z,5.03
2023-01-09T18:50:47.089Z,3.45
2023-01-09T18:53:17.322Z,4.65
2023-01-09T18:55:45.881Z,3.38
2023-01-09T18:58:14.381Z,3.85
2023-01-09T19:00:46.137Z,4.55
2023-01-09T19:03:15.676Z,3.60
2023-01-09T19:05:44.075Z,3.30
2023-01-09T19:08:13.402Z,3.58
2023-01-09T19:10:42.980Z,2.80
2023-01-09T19:13:11.616Z,4.40
2023-01-09T19:15:39.964Z,3.22
2023-01-09T19:18:08.399Z,2.70
2023-01-09T19:20:36.761Z,2.92
2023-01-09T19:23:05.189Z,3.20
2023-01-09T19:25:33.622Z,3.45
2023-01-09T19:28:03.274Z,3.42
2023-01-09T19:30:31.650Z,2.97
2023-01-09T19:33:00.101Z,5.05
2023-01-09T19:35:28.456Z,3.22
2023-01-09T19:37:56.925Z,3.55
2023-01-09T19:40:25.611Z,2.85
2023-01-09T19:42:54.379Z,3.65
2023-01-09T19:45:24.247Z,3.55
2023-01-09T19:47:53.047Z,3.15
2023-01-09T19:50:22.841Z,5.25
2023-01-09T19:52:51.703Z,3.45
2023-01-09T19:55:20.086Z,4.35
2023-01-09T19:57:48.453Z,3.63
2023-01-09T20:00:17.066Z,2.92
2023-01-09T20:02:46.518Z,7.15
2023-01-09T20:05:15.196Z,3.42
2023-01-09T20:07:44.251Z,3.80
2023-01-09T20:10:12.795Z,4.20
2023-01-09T20:12:41.499Z,5.03
2023-01-09T20:15:14.813Z,4.28
2023-01-09T20:17:43.229Z,3.58
2023-01-09T20:20:13.340Z,3.20
2023-01-09T20:22:41.747Z,3.53
2023-01-09T20:25:11.217Z,4.22
2023-01-09T20:27:39.617Z,4.28
2023-01-09T20:30:09.234Z,2.78
2023-01-09T20:32:38.314Z,3.88
2023-01-09T20:35:07.111Z,2.00
2023-01-09T20:37:36.541Z,3.10
2023-01-09T20:40:05.215Z,3.47
2023-01-09T20:42:33.582Z,3.03
2023-01-09T20:45:01.669Z,4.18
2023-01-09T20:47:30.076Z,2.55
2023-01-09T20:49:58.487Z,2.42
2023-01-09T20:52:26.839Z,1.90
2023-01-09T20:54:56.287Z,2.33
2023-01-09T20:57:24.630Z,2.50
2023-01-09T20:59:53.003Z,3.08
2023-01-09T21:02:22.386Z,4.38
2023-01-09T21:04:50.833Z,2.45
2023-01-09T21:07:19.369Z,2.17
2023-01-09T21:09:47.803Z,3.00
2023-01-09T21:12:27.653Z,2.95
2023-01-09T21:14:56.308Z,2.92
2023-01-09T21:17:24.906Z,4.60
2023-01-09T21:19:53.351Z,4.25
2023-01-09T21:22:22.259Z,3.78
2023-01-09T21:24:50.943Z,3.95
2023-01-09T21:27:20.777Z,3.80
2023-01-09T21:29:49.166Z,2.10
2023-01-09T21:32:17.496Z,3.17
2023-01-09T21:34:45.903Z,3.13
2023-01-09T21:37:14.895Z,3.25
2023-01-09T21:39:43.376Z,3.97
2023-01-09T21:42:29.559Z,4.13
2023-01-09T21:45:16.616Z,3.05
2023-01-09T21:47:45.082Z,2.72
2023-01-09T21:50:13.467Z,2.92
2023-01-09T21:52:41.836Z,1.75
2023-01-09T21:55:11.071Z,2.65
2023-01-09T21:57:39.422Z,3.90
2023-01-09T22:00:10.457Z,2.92
2023-01-09T22:02:39.250Z,2.95
2023-01-09T22:05:07.889Z,2.88
2023-01-09T22:07:36.266Z,4.47
2023-01-09T22:10:05.330Z,2.78
2023-01-09T22:12:33.408Z,1.90
2023-01-09T22:15:01.799Z,3.03
2023-01-09T22:17:31.375Z,2.78
2023-01-09T22:19:59.935Z,3.30
2023-01-09T22:22:28.307Z,3.70
2023-01-09T22:24:59.247Z,2.42
2023-01-09T22:27:27.604Z,3.42
2023-01-09T22:29:55.994Z,2.92
2023-01-09T22:32:24.392Z,3.22
2023-01-09T22:34:53.846Z,2.75
2023-01-09T22:37:21.905Z,4.55
2023-01-09T22:39:50.285Z,3.95
2023-01-09T22:42:18.358Z,4.15
2023-01-09T22:44:46.749Z,4.40
2023-01-09T22:47:15.114Z,2.60
2023-01-09T22:49:52.391Z,4.30
2023-01-09T22:52:22.601Z,3.65
2023-01-09T22:54:51.159Z,2.80
2023-01-09T22:57:19.507Z,3.38
2023-01-09T22:59:48.013Z,2.53
2023-01-09T23:02:16.506Z,2.75
2023-01-09T23:04:44.925Z,3.75
2023-01-09T23:07:13.309Z,3.13
2023-01-09T23:09:42.738Z,2.35
2023-01-09T23:12:11.355Z,2.25
2023-01-09T23:14:40.251Z,2.83
2023-01-09T23:17:10.794Z,3.22
2023-01-09T23:19:40.415Z,2.60
2023-01-09T23:22:08.819Z,3.78
2023-01-09T23:24:37.202Z,2.58
2023-01-09T23:27:07.697Z,2.45
2023-01-09T23:29:38.690Z,4.60
2023-01-09T23:32:08.075Z,2.42
2023-01-09T23:34:36.432Z,2.20
2023-01-09T23:37:09.010Z,2.08
2023-01-09T23:39:37.585Z,2.05
2023-01-09T23:42:24.788Z,2.65
2023-01-09T23:44:53.174Z,2.67
2023-01-09T23:47:21.572Z,2.13
2023-01-09T23:49:49.921Z,2.90
2023-01-09T23:52:18.323Z,2.70
2023-01-09T23:54:46.673Z,2.08
2023-01-09T23:57:16.177Z,3.25
2023-01-09T23:59:44.262Z,1.60
